Details From PAKT - KETCHIKAN INTL
To PAPG - PETERSBURG JAMES A JOHNSON
Flight Number -
Tags generated
Created
Modified
Stats Distance 98 nm / 181 km
Max Altitude 8,100 ft / 2,469 m
Waypoints 3
Social Downloads 1
Likes 0
Share VATSIM

Download

Looking for another format? Having issues loading an existing format? Contact us
Advertisement - Login to hide

Notes

Basic altitude profile: - Ascent Rate: 1000ft/min - Ascent Speed: 120kts - Cruise Altitude: 5000ft - Cruise Speed: 205kts - Descent Rate: 900ft/min - Descent Speed: 105kts Options: - Use NATs: yes - Use PACOTS: yes - Use low airways: yes - Use high airways: yes

Route

PAKT DOOZI PAPG

ID Type Via Altitude Latitude Longitude Leg Dist Tot Dist Heading (true) Name
O PAKT APT - 0 ft / 0 m 55.35554˚ -131.71374˚ - 0 nm - KETCHIKAN INTL
DOOZI FIX - 8,100 ft / 2,469 m 55.63254˚ -132.17465˚ 22 nm 22 nm 317° / 317° -
O PAPG APT - 0 ft / 0 m 56.80165˚ -132.94529˚ 74 nm 97 nm 340° / 340° PETERSBURG JAMES A JOHNSON

Altitude Profile

Advertisement - Login to hide

PAKT

Details ICAO PAKT (KTN)
Name KETCHIKAN INTL
Region USA (Alaska)
Timezone Unknown (UTC+0.0)
Stats Elevation 88 ft / 27 m (AMSL)
Location 55.355545° -131.713737°
Runways 1
Magnetic Variation 18.429° E

METAR

PAKT 230453Z 00000KT 6SM -RA BR FEW004 SCT025 OVC037 09/09 A2995

Decode

TAF

TAF AMD PAKT 230300Z 2303/2324 VRB05KT 6SM BR VCSH SCT004 BKN025 OVC050 TEMPO 2303/2307 3SM -SHRA BR BKN004 OVC010 FM230900 32003KT 3SM BR VCSH BKN004 OVC025 FM231600 VRB05KT P6SM FEW010 BKN035 AMD LTD TO CLD VIS AND WIND 2306/2315

Decode

Departure Runways

ID Width Length Bearing (true) Bearing (mag) Surface Threshold Offset Overrun Length
11 150 ft / 46 m 7,485 ft / 2,281 m 135.66° 117.23° Asphalt 0 ft / 0 m 200 ft / 61 m
29 150 ft / 46 m 7,485 ft / 2,281 m 315.68° 297.25° Asphalt 0 ft / 0 m 100 ft / 30 m

PAPG

Details ICAO PAPG (PSG)
Name PETERSBURG JAMES A JOHNSON
Region USA (Alaska)
Timezone America/Juneau (UTC-8.0)
Stats Elevation 105 ft / 32 m (AMSL)
Location 56.801651° -132.945289°
Runways 1
Magnetic Variation 18.752° E

METAR

PAPG 230456Z 00000KT 10SM -RA SCT042 BKN050 09/08 A2996 RMK AO2 RAE13B47 SLPNO P0000 T00890083

Decode

TAF

PAPG 222329Z 2300/2324 06005KT P6SM -SHRA SCT025 OVC035 TEMPO 2300/2304 VRB03KT 5SM -RA BR BKN015 OVC025 FM230400 VRB03KT P6SM VCSH SCT025 OVC040 FM231500 22005KT P6SM BKN050 AMD LTD TO CLD VIS AND WIND 2306/2315

Decode

Destination Runways

ID Width Length Bearing (true) Bearing (mag) Surface Threshold Offset Overrun Length
04 150 ft / 46 m 5,982 ft / 1,823 m 70.70° 51.95° Asphalt 0 ft / 0 m 0 ft / 0 m
22 150 ft / 46 m 5,982 ft / 1,823 m 250.73° 231.98° Asphalt 0 ft / 0 m 0 ft / 0 m

Approach Navaids

Runway Type Ident Frequency Range Bearing (true) Bearing (mag) Slope Elevation
22 Localiser IPSG 110.50 MHz 18 nm / 33 km 185.00° 166.25° - 151 ft / 46 m (AMSL)
22 DME IPSG 110.50 MHz 18 nm / 33 km - - - 164 ft / 50 m (AMSL)

Popular Alternatives